Time;durP1;ratioP1;P1;durP2;ratioP2;P2;SDS_P1;SDS_P2;PMS_P1;PMS_P2;Temp;Humidity;BMP_temperature;BMP_pressure;BME280_temperature;BME280_humidity;BME280_pressure;Samples;Min_cycle;Max_cycle;Signal;HPM_P1;HPM_P2
2022/07/11 00:02:05;;;;;;;4.00;1.05;;;15.00;79.60;;;;;;6201941;23;20004;-75
2022/07/11 00:04:32;;;;;;;3.10;1.58;;;15.00;80.00;;;;;;6200017;23;20721;-75
2022/07/11 00:06:58;;;;;;;2.13;0.85;;;15.00;80.40;;;;;;6201469;23;20051;-75
2022/07/11 00:09:24;;;;;;;2.50;1.10;;;14.90;80.20;;;;;;6201630;23;20016;-75
2022/07/11 00:11:51;;;;;;;4.00;1.00;;;14.90;80.20;;;;;;6200220;23;20079;-75
2022/07/11 00:14:17;;;;;;;5.57;1.33;;;14.90;80.20;;;;;;6202043;23;20018;-74
2022/07/11 00:16:43;;;;;;;3.95;1.15;;;14.80;80.30;;;;;;6201313;23;20014;-75
2022/07/11 00:19:09;;;;;;;3.55;1.27;;;14.80;80.50;;;;;;6212325;23;20008;-73
2022/07/11 00:21:36;;;;;;;6.97;1.25;;;14.80;80.60;;;;;;6201277;23;20004;-74
2022/07/11 00:24:03;;;;;;;4.53;1.20;;;14.70;80.90;;;;;;6201393;23;20469;-74
2022/07/11 00:26:29;;;;;;;4.28;1.58;;;14.70;81.00;;;;;;6201487;23;20678;-74
2022/07/11 00:28:55;;;;;;;2.13;1.10;;;14.60;81.20;;;;;;6201777;23;20008;-74
2022/07/11 00:31:21;;;;;;;4.05;1.35;;;14.60;81.60;;;;;;6200500;23;20012;-74
2022/07/11 00:33:47;;;;;;;6.28;1.20;;;14.60;81.90;;;;;;6211712;23;20131;-74
2022/07/11 00:36:13;;;;;;;4.13;1.30;;;14.60;82.20;;;;;;6198802;23;20152;-74
2022/07/11 00:38:39;;;;;;;3.78;0.90;;;14.50;82.10;;;;;;6200741;23;20019;-74
2022/07/11 00:41:05;;;;;;;3.45;0.90;;;14.50;82.00;;;;;;6211725;23;20008;-73
2022/07/11 00:43:38;;;;;;;2.83;1.20;;;14.50;82.10;;;;;;6210987;23;20001;-74
2022/07/11 00:46:05;;;;;;;3.67;1.00;;;14.50;82.40;;;;;;6201110;23;20458;-75
2022/07/11 00:48:32;;;;;;;3.50;1.23;;;14.50;82.70;;;;;;6200681;23;20009;-75
2022/07/11 00:50:59;;;;;;;4.53;1.17;;;14.50;82.80;;;;;;6201219;23;20016;-74
2022/07/11 00:53:25;;;;;;;1.38;1.10;;;14.40;82.80;;;;;;6201342;23;20449;-74
2022/07/11 00:55:55;;;;;;;3.42;0.90;;;14.40;82.90;;;;;;6203946;23;20605;-73
2022/07/11 00:58:22;;;;;;;4.18;1.08;;;14.40;83.10;;;;;;6213988;23;20090;-74
2022/07/11 01:00:48;;;;;;;3.58;1.17;;;14.40;83.40;;;;;;6203981;23;20020;-74
2022/07/11 01:03:14;;;;;;;5.15;1.33;;;14.40;83.50;;;;;;6212839;23;20005;-75
2022/07/11 01:05:40;;;;;;;3.03;0.93;;;14.30;83.40;;;;;;6210875;23;20011;-74
2022/07/11 01:08:06;;;;;;;4.20;1.45;;;14.30;83.50;;;;;;6200456;23;20028;-74
2022/07/11 01:10:33;;;;;;;4.82;1.17;;;14.30;84.40;;;;;;6200502;23;20115;-74
2022/07/11 01:12:58;;;;;;;2.80;1.00;;;14.20;84.00;;;;;;6200235;23;20013;-74
2022/07/11 01:15:24;;;;;;;3.75;1.00;;;14.20;84.20;;;;;;6210777;23;20020;-74
2022/07/11 01:17:54;;;;;;;1.42;1.08;;;14.20;84.30;;;;;;6210329;23;20358;-75
2022/07/11 01:20:22;;;;;;;3.50;1.23;;;14.20;84.40;;;;;;6211110;23;20445;-74
2022/07/11 01:22:52;;;;;;;3.60;1.20;;;14.20;84.40;;;;;;6199866;23;20012;-74
2022/07/11 01:25:30;;;;;;;3.70;1.17;;;14.10;84.60;;;;;;6200531;23;20008;-74
2022/07/11 01:27:58;;;;;;;5.88;1.23;;;14.10;84.90;;;;;;6198114;23;20017;-73
2022/07/11 01:30:25;;;;;;;6.82;1.30;;;14.10;85.10;;;;;;6200498;23;20015;-74
2022/07/11 01:32:52;;;;;;;5.28;1.00;;;14.10;85.20;;;;;;6201537;23;20389;-74
2022/07/11 01:35:18;;;;;;;3.97;1.17;;;14.10;85.10;;;;;;6199615;23;20040;-74
2022/07/11 01:37:45;;;;;;;3.58;0.82;;;14.10;85.10;;;;;;6200147;23;20109;-74
2022/07/11 01:40:11;;;;;;;7.00;1.60;;;14.10;85.00;;;;;;6173499;23;20458;-74
2022/07/11 01:42:37;;;;;;;4.97;1.17;;;14.10;85.00;;;;;;6201031;23;20095;-74
2022/07/11 01:45:03;;;;;;;8.63;1.42;;;14.00;84.90;;;;;;6210654;23;20080;-74
2022/07/11 01:47:29;;;;;;;4.28;1.10;;;14.10;85.10;;;;;;6199718;23;20024;-74
2022/07/11 01:49:55;;;;;;;7.85;1.35;;;14.00;85.10;;;;;;6200659;23;20613;-74
2022/07/11 01:52:21;;;;;;;5.38;1.30;;;14.00;85.20;;;;;;6200000;23;20019;-74
2022/07/11 01:54:47;;;;;;;4.22;1.13;;;14.00;85.30;;;;;;6201194;23;20013;-73
2022/07/11 01:57:14;;;;;;;2.60;0.90;;;13.90;85.40;;;;;;6199817;23;20048;-74
2022/07/11 01:59:40;;;;;;;4.50;1.40;;;13.90;85.60;;;;;;6210824;23;20111;-74
2022/07/11 02:02:06;;;;;;;5.32;1.20;;;13.90;85.80;;;;;;6211316;23;20241;-74
2022/07/11 02:04:32;;;;;;;10.93;1.88;;;13.90;86.00;;;;;;6200432;23;20012;-74
2022/07/11 02:06:58;;;;;;;2.50;1.00;;;13.90;86.00;;;;;;6201050;23;20821;-74
2022/07/11 02:09:24;;;;;;;6.00;1.27;;;13.80;86.10;;;;;;6200431;23;20016;-73
2022/07/11 02:11:50;;;;;;;3.75;1.20;;;13.80;86.20;;;;;;6201093;23;20083;-74
2022/07/11 02:14:16;;;;;;;4.38;1.25;;;13.80;86.30;;;;;;6201191;23;20036;-74
2022/07/11 02:16:41;;;;;;;4.60;1.27;;;13.80;86.50;;;;;;6210122;23;20510;-74
2022/07/11 02:19:07;;;;;;;4.72;1.58;;;13.70;86.40;;;;;;6201249;23;20030;-74
2022/07/11 02:21:34;;;;;;;2.08;1.23;;;13.70;86.60;;;;;;6200237;23;20042;-74
2022/07/11 02:24:00;;;;;;;3.40;1.13;;;13.70;86.60;;;;;;6201313;23;20008;-74
2022/07/11 02:26:26;;;;;;;3.88;1.50;;;13.70;86.50;;;;;;6200981;23;20043;-74
2022/07/11 02:28:51;;;;;;;4.10;1.20;;;13.80;86.40;;;;;;6200848;23;20872;-73
2022/07/11 02:31:17;;;;;;;1.92;1.10;;;13.80;86.10;;;;;;6201054;23;20020;-73
2022/07/11 02:33:43;;;;;;;3.42;1.15;;;13.70;86.10;;;;;;6200476;23;20016;-74
2022/07/11 02:36:10;;;;;;;4.03;1.30;;;13.70;86.30;;;;;;6198326;23;20403;-74
2022/07/11 02:38:36;;;;;;;4.78;1.23;;;13.70;86.40;;;;;;6197968;23;20536;-74
2022/07/11 02:41:01;;;;;;;5.03;1.35;;;13.70;86.50;;;;;;6211086;23;20032;-74
2022/07/11 02:43:28;;;;;;;2.22;1.10;;;13.70;86.50;;;;;;6199249;23;20557;-74
2022/07/11 02:45:54;;;;;;;4.47;1.17;;;13.70;86.50;;;;;;6199113;23;20423;-74
2022/07/11 02:48:20;;;;;;;3.45;1.40;;;13.60;86.60;;;;;;6198959;23;20012;-75
2022/07/11 02:50:46;;;;;;;5.03;1.17;;;13.60;86.80;;;;;;6199618;23;20027;-74
2022/07/11 02:53:12;;;;;;;2.47;1.20;;;13.60;86.90;;;;;;6199920;23;20016;-73
2022/07/11 02:55:38;;;;;;;3.25;1.00;;;13.60;87.00;;;;;;6200583;23;20013;-74
2022/07/11 02:58:04;;;;;;;2.63;1.20;;;13.60;87.20;;;;;;6210239;23;20720;-74
2022/07/11 03:00:30;;;;;;;3.58;1.00;;;13.50;87.10;;;;;;6210675;23;20697;-74
2022/07/11 03:02:56;;;;;;;5.15;1.60;;;13.60;87.10;;;;;;6199996;23;20342;-74
2022/07/11 03:05:22;;;;;;;2.97;1.10;;;13.50;87.00;;;;;;6199139;23;20009;-74
2022/07/11 03:07:48;;;;;;;1.55;1.00;;;13.50;87.10;;;;;;6200074;23;20021;-74
2022/07/11 03:10:14;;;;;;;5.45;1.42;;;13.50;87.30;;;;;;6202622;23;20354;-73
2022/07/11 03:12:41;;;;;;;2.42;1.10;;;13.50;87.20;;;;;;6202075;23;20023;-73
2022/07/11 03:15:07;;;;;;;5.68;1.45;;;13.50;87.10;;;;;;6203299;23;20359;-74
2022/07/11 03:17:36;;;;;;;3.67;1.13;;;13.50;87.20;;;;;;6211775;23;20051;-74
2022/07/11 03:20:04;;;;;;;2.97;1.42;;;13.40;87.20;;;;;;6198056;23;20044;-74
2022/07/11 03:22:30;;;;;;;4.38;1.20;;;13.50;87.20;;;;;;6198268;23;20008;-74
2022/07/11 03:24:55;;;;;;;3.35;1.35;;;13.40;87.30;;;;;;6198450;23;20088;-74
2022/07/11 03:27:21;;;;;;;4.05;1.38;;;13.40;87.30;;;;;;6198810;23;20784;-74
2022/07/11 03:29:47;;;;;;;3.00;1.23;;;13.40;87.40;;;;;;6198537;23;20208;-74
2022/07/11 03:32:13;;;;;;;7.82;1.52;;;13.40;87.50;;;;;;6199611;23;20013;-74
2022/07/11 03:34:39;;;;;;;3.65;1.10;;;13.40;87.50;;;;;;6201331;23;20035;-75
2022/07/11 03:37:05;;;;;;;3.38;1.25;;;13.40;87.60;;;;;;6199192;23;20008;-74
2022/07/11 03:39:32;;;;;;;3.53;1.40;;;13.30;87.60;;;;;;6199985;23;20012;-74
2022/07/11 03:41:58;;;;;;;4.03;1.42;;;13.40;87.80;;;;;;6198901;23;20019;-74
2022/07/11 03:44:24;;;;;;;3.00;1.00;;;13.30;87.80;;;;;;6199095;23;20020;-74
2022/07/11 03:46:50;;;;;;;6.32;1.67;;;13.40;88.10;;;;;;6198486;23;20091;-74
2022/07/11 03:49:16;;;;;;;5.28;2.08;;;13.40;88.20;;;;;;6209629;23;20107;-75
2022/07/11 03:51:42;;;;;;;5.35;1.25;;;13.40;88.20;;;;;;6199772;23;20124;-74
2022/07/11 03:54:08;;;;;;;6.50;1.20;;;13.40;88.40;;;;;;6198397;23;20615;-74
2022/07/11 03:56:34;;;;;;;2.53;1.27;;;13.30;88.50;;;;;;6209409;23;20015;-74
2022/07/11 03:59:00;;;;;;;2.90;1.17;;;13.40;88.50;;;;;;6210011;23;20000;-74
2022/07/11 04:01:26;;;;;;;3.15;1.33;;;13.40;88.50;;;;;;6199654;23;20019;-74
2022/07/11 04:03:52;;;;;;;5.35;1.58;;;13.40;88.20;;;;;;6200286;23;20044;-74
2022/07/11 04:06:17;;;;;;;3.25;1.15;;;13.50;88.20;;;;;;6198862;23;20011;-74
2022/07/11 04:08:43;;;;;;;6.18;1.20;;;13.50;88.10;;;;;;6200203;23;20008;-74
2022/07/11 04:11:10;;;;;;;4.70;1.30;;;13.50;88.10;;;;;;6201403;23;20009;-74
2022/07/11 04:13:36;;;;;;;2.30;1.00;;;13.50;87.90;;;;;;6201500;23;20066;-74
2022/07/11 04:16:01;;;;;;;4.38;1.48;;;13.50;88.00;;;;;;6201079;23;20012;-74
2022/07/11 04:18:27;;;;;;;4.75;1.33;;;13.50;88.30;;;;;;6201696;23;20529;-74
2022/07/11 04:20:53;;;;;;;4.78;1.70;;;13.50;88.10;;;;;;6201510;23;20013;-74
2022/07/11 04:23:19;;;;;;;5.18;1.30;;;13.60;88.10;;;;;;6200869;23;20234;-74
2022/07/11 04:25:45;;;;;;;6.13;1.52;;;13.50;88.10;;;;;;6201490;23;20061;-74
2022/07/11 04:28:10;;;;;;;3.20;1.10;;;13.60;88.40;;;;;;6211174;23;20020;-74
2022/07/11 04:30:36;;;;;;;4.38;1.23;;;13.60;88.40;;;;;;6212653;23;20023;-75
2022/07/11 04:33:02;;;;;;;3.75;1.55;;;13.60;88.40;;;;;;6202535;23;20040;-75
2022/07/11 04:35:28;;;;;;;3.92;1.40;;;13.70;88.30;;;;;;6200890;23;20127;-74
2022/07/11 04:37:55;;;;;;;3.88;1.50;;;13.70;88.10;;;;;;6201950;23;20016;-74
2022/07/11 04:40:23;;;;;;;7.90;1.38;;;13.70;88.10;;;;;;6201997;23;20043;-74
2022/07/11 04:42:52;;;;;;;3.58;1.42;;;13.80;88.00;;;;;;6212186;23;20054;-74
2022/07/11 04:45:19;;;;;;;3.40;1.40;;;13.80;87.90;;;;;;6201294;23;20013;-74
2022/07/11 04:47:45;;;;;;;4.13;1.00;;;13.80;88.00;;;;;;6202276;23;20430;-74
2022/07/11 04:50:11;;;;;;;9.02;1.60;;;13.80;88.10;;;;;;6201674;23;20079;-74
2022/07/11 04:52:37;;;;;;;4.00;1.10;;;13.80;88.20;;;;;;6201536;23;20095;-74
2022/07/11 04:55:04;;;;;;;2.70;1.10;;;13.90;88.20;;;;;;6201788;23;20458;-74
2022/07/11 04:57:29;;;;;;;5.07;1.58;;;13.90;88.10;;;;;;6200441;23;20095;-74
2022/07/11 04:59:55;;;;;;;7.75;1.77;;;13.90;88.20;;;;;;6201244;23;20012;-75
2022/07/11 05:02:21;;;;;;;3.92;1.48;;;14.00;88.30;;;;;;6200478;23;20019;-74
2022/07/11 05:04:47;;;;;;;3.65;1.55;;;14.00;88.20;;;;;;6209535;23;20004;-75
2022/07/11 05:07:13;;;;;;;4.43;1.30;;;14.00;88.10;;;;;;6199701;23;20521;-74
2022/07/11 05:09:39;;;;;;;5.45;1.70;;;14.10;88.20;;;;;;6209939;23;20049;-74
2022/07/11 05:12:06;;;;;;;3.55;1.63;;;14.10;88.10;;;;;;6211048;23;20012;-75
2022/07/11 05:14:32;;;;;;;3.30;1.20;;;14.10;88.20;;;;;;6200343;23;20017;-74
2022/07/11 05:16:58;;;;;;;5.70;1.40;;;14.20;88.00;;;;;;6210240;23;20009;-74
2022/07/11 05:19:24;;;;;;;5.82;1.45;;;14.20;87.70;;;;;;6200513;23;20023;-74
2022/07/11 05:21:50;;;;;;;5.57;1.88;;;14.30;87.50;;;;;;6200649;23;20013;-74
2022/07/11 05:24:17;;;;;;;5.80;1.90;;;14.40;87.40;;;;;;6201528;23;20751;-75
2022/07/11 05:26:44;;;;;;;5.57;1.35;;;14.40;87.50;;;;;;6203334;23;20012;-74
2022/07/11 05:29:10;;;;;;;6.03;1.23;;;14.50;87.20;;;;;;6203562;23;20020;-74
2022/07/11 05:31:36;;;;;;;4.65;1.80;;;14.50;87.00;;;;;;6203840;23;20009;-75
2022/07/11 05:34:02;;;;;;;4.03;1.45;;;14.60;86.70;;;;;;6201850;23;20027;-75
2022/07/11 05:36:28;;;;;;;5.60;1.40;;;14.60;86.30;;;;;;6201215;23;20008;-74
2022/07/11 05:38:54;;;;;;;5.30;1.30;;;14.70;86.50;;;;;;6201528;23;20383;-74
2022/07/11 05:41:20;;;;;;;7.90;1.33;;;14.70;86.50;;;;;;6201906;23;20015;-75
2022/07/11 05:43:46;;;;;;;4.57;1.20;;;14.80;86.10;;;;;;6200976;23;20082;-75
2022/07/11 05:46:12;;;;;;;3.50;1.33;;;14.80;85.80;;;;;;6211573;23;20017;-73
2022/07/11 05:48:37;;;;;;;7.25;1.35;;;14.90;85.80;;;;;;6200889;23;20012;-75
2022/07/11 05:51:03;;;;;;;3.78;1.55;;;15.00;85.70;;;;;;6201171;23;20012;-74
2022/07/11 05:53:29;;;;;;;2.38;1.38;;;15.10;85.50;;;;;;6199403;23;20035;-75
2022/07/11 05:55:55;;;;;;;2.95;1.20;;;15.20;85.10;;;;;;6200694;23;20005;-75
2022/07/11 05:58:21;;;;;;;3.90;1.30;;;15.20;84.90;;;;;;6210525;23;20624;-73
2022/07/11 06:00:47;;;;;;;4.25;1.00;;;15.30;84.80;;;;;;6201282;23;20008;-75
2022/07/11 06:03:12;;;;;;;3.85;1.50;;;15.40;84.70;;;;;;6200829;23;20023;-75
2022/07/11 06:05:38;;;;;;;7.63;1.25;;;15.50;84.10;;;;;;6211131;23;20012;-75
2022/07/11 06:10:48;;;;;;;6.28;1.58;;;15.70;83.20;;;;;;6201407;23;20087;-74
2022/07/11 06:13:14;;;;;;;5.15;1.38;;;15.70;82.10;;;;;;6199702;23;20406;-74
2022/07/11 06:15:41;;;;;;;2.95;1.20;;;15.90;82.10;;;;;;6200810;23;20097;-75
2022/07/11 06:18:06;;;;;;;3.80;1.55;;;16.00;82.10;;;;;;6199481;23;20194;-75
2022/07/11 06:20:32;;;;;;;4.95;1.40;;;16.20;82.20;;;;;;6200292;23;20012;-75
2022/07/11 06:22:58;;;;;;;7.03;1.40;;;16.30;81.10;;;;;;6210578;23;20028;-75
2022/07/11 06:25:24;;;;;;;6.18;1.67;;;16.40;81.30;;;;;;6209402;23;20446;-74
2022/07/11 06:27:49;;;;;;;5.47;1.67;;;16.40;81.20;;;;;;6199604;23;20008;-75
2022/07/11 06:30:15;;;;;;;2.67;1.23;;;16.50;80.40;;;;;;6200133;23;20012;-74
2022/07/11 06:32:41;;;;;;;3.70;1.17;;;16.50;80.00;;;;;;6199949;23;20724;-75
2022/07/11 06:35:08;;;;;;;5.38;1.60;;;16.60;80.30;;;;;;6200658;23;20091;-75
2022/07/11 06:37:33;;;;;;;4.05;1.17;;;16.60;80.70;;;;;;6209662;23;20066;-74
2022/07/11 06:39:59;;;;;;;7.18;1.27;;;16.60;79.70;;;;;;6200775;23;20008;-75
2022/07/11 06:42:25;;;;;;;7.32;1.52;;;16.70;79.20;;;;;;6209986;23;20430;-75
2022/07/11 06:44:54;;;;;;;5.47;1.08;;;16.80;79.00;;;;;;6201260;23;20013;-74
2022/07/11 06:47:20;;;;;;;8.50;1.25;;;16.80;78.40;;;;;;6209635;23;20012;-75
2022/07/11 06:49:46;;;;;;;5.25;1.30;;;16.80;78.70;;;;;;6201020;23;20406;-74
2022/07/11 06:52:11;;;;;;;9.48;1.48;;;16.80;77.90;;;;;;6199393;23;20016;-74
2022/07/11 06:54:37;;;;;;;6.50;1.10;;;16.90;78.20;;;;;;6200344;23;20016;-75
2022/07/11 06:57:03;;;;;;;7.13;1.20;;;16.90;77.80;;;;;;6200338;23;20391;-75
2022/07/11 06:59:29;;;;;;;5.00;1.08;;;17.00;77.30;;;;;;6200171;23;20012;-75
2022/07/11 07:01:54;;;;;;;7.45;1.58;;;17.10;77.20;;;;;;6201097;23;20492;-75
2022/07/11 07:04:20;;;;;;;4.53;1.30;;;17.20;77.20;;;;;;6200534;23;20004;-75
2022/07/11 07:06:46;;;;;;;9.70;1.70;;;17.30;76.90;;;;;;6200525;23;20082;-74
2022/07/11 07:09:13;;;;;;;6.25;1.27;;;17.30;76.30;;;;;;6200700;23;20016;-73
2022/07/11 07:11:38;;;;;;;7.03;1.42;;;17.30;76.20;;;;;;6199260;23;20012;-74
2022/07/11 07:14:04;;;;;;;7.45;1.75;;;17.40;76.10;;;;;;6200297;23;20008;-73
2022/07/11 07:16:30;;;;;;;7.20;1.40;;;17.50;75.90;;;;;;6207985;23;20048;-73
2022/07/11 07:18:56;;;;;;;3.53;1.40;;;17.60;75.50;;;;;;6208850;23;20008;-71
2022/07/11 07:21:22;;;;;;;6.55;1.25;;;17.70;75.60;;;;;;6196968;23;20497;-71
2022/07/11 07:23:48;;;;;;;10.57;1.73;;;17.70;74.90;;;;;;6198308;23;20012;-72
2022/07/11 07:26:14;;;;;;;6.70;1.20;;;17.80;74.70;;;;;;6198832;23;20027;-73
2022/07/11 07:28:39;;;;;;;5.43;1.60;;;17.90;74.30;;;;;;6199237;23;20035;-73
2022/07/11 07:31:06;;;;;;;5.97;1.60;;;17.90;74.60;;;;;;6199422;23;20126;-73
2022/07/11 07:33:32;;;;;;;7.50;2.22;;;18.00;74.40;;;;;;6210342;23;20001;-70
2022/07/11 07:35:57;;;;;;;6.63;1.33;;;18.00;74.00;;;;;;6199351;23;20112;-72
2022/07/11 07:38:23;;;;;;;9.30;2.85;;;18.10;73.60;;;;;;6200522;23;20697;-76
2022/07/11 07:40:49;;;;;;;10.75;3.42;;;18.10;74.20;;;;;;6198792;23;20028;-77
2022/07/11 07:43:15;;;;;;;9.50;2.72;;;18.20;74.30;;;;;;6211966;23;20005;-77
2022/07/11 07:45:40;;;;;;;7.00;3.50;;;18.40;73.60;;;;;;6201217;23;20071;-78
2022/07/11 07:48:06;;;;;;;5.78;2.08;;;18.40;72.90;;;;;;6211139;23;20165;-77
2022/07/11 07:50:32;;;;;;;7.30;2.67;;;18.60;72.30;;;;;;6200650;23;20012;-77
2022/07/11 07:52:58;;;;;;;12.02;3.83;;;18.80;71.20;;;;;;6199726;23;20020;-77
2022/07/11 07:55:24;;;;;;;16.25;6.72;;;18.90;70.60;;;;;;6200303;23;20015;-76
2022/07/11 07:57:49;;;;;;;8.13;1.90;;;18.90;70.30;;;;;;6197751;23;20019;-78
2022/07/11 08:03:09;;;;;;;14.90;7.63;;;19.00;70.60;;;;;;6200579;23;20518;-77
2022/07/11 08:05:35;;;;;;;9.15;1.70;;;19.00;71.10;;;;;;6200055;23;20009;-77
2022/07/11 08:08:01;;;;;;;5.57;1.42;;;19.00;69.90;;;;;;6200438;23;20039;-76
2022/07/11 08:10:27;;;;;;;6.45;1.48;;;19.20;69.80;;;;;;6200324;23;20443;-78
2022/07/11 08:12:52;;;;;;;4.55;1.20;;;19.20;69.60;;;;;;6197734;23;20021;-80
2022/07/11 08:15:18;;;;;;;9.40;1.38;;;19.30;69.00;;;;;;6211824;23;20020;-77
2022/07/11 08:17:44;;;;;;;10.48;1.30;;;19.30;68.60;;;;;;6201006;23;20009;-75
2022/07/11 08:20:10;;;;;;;6.80;1.40;;;19.40;68.30;;;;;;6202437;23;20514;-76
2022/07/11 08:22:36;;;;;;;6.22;1.23;;;19.40;68.70;;;;;;6202354;23;20015;-81
2022/07/11 08:25:02;;;;;;;3.80;1.15;;;19.50;68.80;;;;;;6203802;23;20079;-86
2022/07/11 08:27:28;;;;;;;6.28;1.40;;;19.50;68.10;;;;;;6201144;23;20023;-81
2022/07/11 08:29:53;;;;;;;7.85;1.15;;;19.60;67.60;;;;;;6202967;23;20013;-82
2022/07/11 08:32:19;;;;;;;5.05;1.27;;;19.70;67.10;;;;;;6200445;23;20008;-84
2022/07/11 08:34:46;;;;;;;9.38;3.45;;;19.70;67.50;;;;;;6202206;23;20020;-83
2022/07/11 08:37:12;;;;;;;8.63;4.53;;;19.90;67.40;;;;;;6209594;23;20009;-82
2022/07/11 08:39:37;;;;;;;2.85;1.35;;;19.80;66.90;;;;;;6201168;23;20009;-81
2022/07/11 08:42:04;;;;;;;5.05;1.20;;;19.90;66.20;;;;;;6202045;23;20167;-77
2022/07/11 08:44:29;;;;;;;6.50;1.20;;;19.90;67.00;;;;;;6201108;23;20008;-80
2022/07/11 08:46:57;;;;;;;6.70;1.30;;;20.00;66.40;;;;;;6200197;23;20019;-80
2022/07/11 08:49:23;;;;;;;4.80;1.30;;;20.00;66.10;;;;;;6199072;23;20021;-77
2022/07/11 08:51:49;;;;;;;6.97;1.40;;;20.00;66.70;;;;;;6200539;23;20016;-79
2022/07/11 08:54:15;;;;;;;4.65;1.38;;;20.10;66.50;;;;;;6201049;23;20017;-79
2022/07/11 08:56:45;;;;;;;2.95;0.98;;;20.10;66.70;;;;;;6199609;23;20490;-80
2022/07/11 08:59:13;;;;;;;5.03;1.40;;;20.20;64.40;;;;;;6211208;23;20068;-80
2022/07/11 09:01:44;;;;;;;5.95;1.35;;;20.20;65.30;;;;;;6199007;23;20012;-80
2022/07/11 09:04:10;;;;;;;6.35;1.00;;;20.30;65.20;;;;;;6200559;23;20326;-80
2022/07/11 09:06:35;;;;;;;7.38;1.13;;;20.30;65.80;;;;;;6198425;23;20008;-78
2022/07/11 09:09:02;;;;;;;4.90;0.90;;;20.40;65.60;;;;;;6200038;23;20454;-77
2022/07/11 09:11:28;;;;;;;5.97;1.75;;;20.50;65.20;;;;;;6200893;23;20685;-75
2022/07/11 09:13:54;;;;;;;3.85;0.95;;;20.60;65.60;;;;;;6210292;23;20095;-76
2022/07/11 09:16:20;;;;;;;2.73;0.97;;;20.60;64.60;;;;;;6210155;23;20012;-81
2022/07/11 09:18:46;;;;;;;7.13;1.10;;;20.70;65.50;;;;;;6200237;23;20008;-80
2022/07/11 09:26:49;;;;;;;4.78;1.25;;;20.80;63.80;;;;;;6199326;23;20012;-80
2022/07/11 09:29:20;;;;;;;6.18;1.17;;;20.90;63.10;;;;;;6200347;23;20012;-80
2022/07/11 09:31:47;;;;;;;3.42;0.95;;;21.00;61.30;;;;;;6199357;23;20008;-77
2022/07/11 09:34:15;;;;;;;6.45;1.33;;;20.90;62.80;;;;;;6200947;23;20012;-77
2022/07/11 09:36:50;;;;;;;6.03;1.27;;;21.00;62.60;;;;;;6199498;23;20016;-77
2022/07/11 09:39:27;;;;;;;8.90;1.42;;;21.00;63.50;;;;;;6197942;23;20088;-78
2022/07/11 09:41:53;;;;;;;5.07;1.20;;;21.10;64.00;;;;;;6211219;23;20033;-78
2022/07/11 09:44:28;;;;;;;2.83;0.85;;;21.20;62.70;;;;;;6200773;23;20008;-74
2022/07/11 09:46:56;;;;;;;7.32;1.10;;;21.20;61.70;;;;;;6200146;23;20063;-73
2022/07/11 09:49:39;;;;;;;4.25;1.15;;;21.20;61.60;;;;;;6199623;23;20023;-75
2022/07/11 09:52:16;;;;;;;4.38;1.10;;;21.30;62.90;;;;;;6199912;23;20438;-76
2022/07/11 09:54:56;;;;;;;3.67;1.05;;;21.40;61.90;;;;;;6199861;23;20012;-76
2022/07/11 09:57:31;;;;;;;9.15;1.35;;;21.50;62.10;;;;;;6201477;23;20020;-76
2022/07/11 09:59:58;;;;;;;5.45;1.15;;;21.50;61.40;;;;;;6199794;23;20537;-76
2022/07/11 10:02:24;;;;;;;8.02;1.25;;;21.50;61.30;;;;;;6212121;23;20000;-76
2022/07/11 10:04:50;;;;;;;5.75;1.27;;;21.40;59.90;;;;;;6198706;23;20035;-75
2022/07/11 10:07:16;;;;;;;5.75;1.27;;;21.40;61.00;;;;;;6197849;23;20733;-76
2022/07/11 10:09:41;;;;;;;5.90;1.17;;;21.50;60.80;;;;;;6200223;23;20087;-76
2022/07/11 10:12:08;;;;;;;5.53;1.05;;;21.50;61.20;;;;;;6208960;23;20012;-76
2022/07/11 10:14:37;;;;;;;5.80;1.10;;;21.70;61.00;;;;;;6199217;23;20078;-76
2022/07/11 10:17:13;;;;;;;7.10;1.00;;;21.70;60.50;;;;;;6198156;23;20103;-76
2022/07/11 10:19:56;;;;;;;5.65;1.50;;;21.70;61.50;;;;;;6198925;23;20009;-76
2022/07/11 10:22:55;;;;;;;5.25;0.93;;;21.70;60.40;;;;;;6198531;23;20005;-75
2022/07/11 10:25:33;;;;;;;4.72;0.88;;;21.80;60.30;;;;;;6191910;23;20748;-75
2022/07/11 10:28:10;;;;;;;4.20;0.98;;;21.80;59.00;;;;;;6198077;23;20039;-74
2022/07/11 10:31:01;;;;;;;6.30;1.30;;;21.90;59.10;;;;;;6198420;23;20020;-77
2022/07/11 10:33:28;;;;;;;6.95;1.40;;;22.00;59.90;;;;;;6198348;23;20485;-77
2022/07/11 10:35:55;;;;;;;4.88;1.13;;;22.10;59.40;;;;;;6196811;23;20067;-77
2022/07/11 10:38:23;;;;;;;7.28;1.63;;;22.20;59.00;;;;;;6196313;23;20000;-79
2022/07/11 10:40:57;;;;;;;5.38;1.48;;;22.30;59.00;;;;;;6198543;23;20008;-77
2022/07/11 10:43:22;;;;;;;4.38;1.20;;;22.40;58.60;;;;;;6208777;23;20012;-77
2022/07/11 10:45:58;;;;;;;5.93;1.10;;;22.40;58.60;;;;;;6198417;23;20489;-80
2022/07/11 10:48:25;;;;;;;;;;;22.40;58.90;;;;;;6198307;23;20067;-78
2022/07/11 10:51:34;;;;;;;5.22;1.08;;;22.50;58.90;;;;;;6197297;23;19914;-78
2022/07/11 10:54:22;;;;;;;4.72;1.02;;;22.50;58.90;;;;;;6181650;23;20016;-77
2022/07/11 10:57:15;;;;;;;5.15;1.17;;;22.80;58.40;;;;;;6201951;23;20009;-79
2022/07/11 10:59:59;;;;;;;3.75;0.80;;;22.90;57.50;;;;;;6198340;23;20012;-77
2022/07/11 11:02:26;;;;;;;3.80;1.00;;;23.10;58.00;;;;;;6198635;23;20008;-75
2022/07/11 11:05:01;;;;;;;4.28;0.95;;;23.20;57.20;;;;;;6208112;23;20382;-76
2022/07/11 11:07:32;;;;;;;6.13;1.23;;;23.30;56.70;;;;;;6197453;23;20036;-77
2022/07/11 11:09:59;;;;;;;4.68;1.08;;;23.20;56.00;;;;;;6198084;23;20798;-78
2022/07/11 11:13:09;;;;;;;2.83;1.00;;;23.10;56.30;;;;;;6198304;23;20008;-78
2022/07/11 11:15:40;;;;;;;2.58;0.68;;;23.20;56.50;;;;;;6196419;23;20393;-79
2022/07/11 11:18:24;;;;;;;4.53;1.00;;;23.10;56.10;;;;;;6208703;23;20017;-79
2022/07/11 11:21:00;;;;;;;3.78;1.40;;;23.10;56.70;;;;;;6201491;23;20673;-78
2022/07/11 11:24:02;;;;;;;2.92;0.85;;;23.00;55.20;;;;;;6199616;23;20023;-77
2022/07/11 11:26:46;;;;;;;5.60;1.05;;;22.80;55.60;;;;;;6209363;23;20102;-77
2022/07/11 11:29:19;;;;;;;4.10;1.08;;;22.70;57.60;;;;;;6209796;23;20015;-77
2022/07/11 11:31:50;;;;;;;4.57;0.98;;;22.60;58.40;;;;;;6200494;23;20017;-78
2022/07/11 11:34:17;;;;;;;2.50;0.70;;;22.70;58.40;;;;;;6200825;23;20264;-77
2022/07/11 11:36:43;;;;;;;1.90;0.65;;;22.80;56.40;;;;;;6209697;23;20112;-78
2022/07/11 11:39:09;;;;;;;8.38;1.00;;;22.90;55.40;;;;;;6200995;23;20019;-78
2022/07/11 11:41:34;;;;;;;5.07;1.27;;;23.00;54.10;;;;;;6198359;23;20005;-77
2022/07/11 11:44:01;;;;;;;4.22;1.23;;;22.90;54.90;;;;;;6200628;23;20059;-78
2022/07/11 11:46:35;;;;;;;2.83;0.77;;;22.80;56.00;;;;;;6198498;23;20012;-77
2022/07/11 11:49:03;;;;;;;3.80;0.90;;;22.70;56.30;;;;;;6200034;23;20047;-77
2022/07/11 11:51:30;;;;;;;6.15;2.22;;;22.60;56.40;;;;;;6199929;23;20560;-75
2022/07/11 11:53:58;;;;;;;3.13;0.85;;;22.60;56.10;;;;;;6200833;23;20009;-78
2022/07/11 11:56:29;;;;;;;1.90;0.70;;;22.60;57.50;;;;;;6201234;23;20092;-78
2022/07/11 11:59:07;;;;;;;7.65;0.93;;;22.70;57.10;;;;;;6201110;23;20024;-76
2022/07/11 12:01:36;;;;;;;3.03;0.63;;;22.70;55.80;;;;;;6202159;23;20017;-78
2022/07/11 12:04:05;;;;;;;4.40;0.80;;;22.80;55.30;;;;;;6212250;23;20020;-78
2022/07/11 12:06:35;;;;;;;2.83;0.90;;;22.80;55.50;;;;;;6201444;23;20023;-78
2022/07/11 12:09:05;;;;;;;2.20;0.60;;;22.90;54.80;;;;;;6200234;23;20004;-77
2022/07/11 12:11:31;;;;;;;4.35;0.93;;;23.00;51.40;;;;;;6202586;23;20009;-78
2022/07/11 12:13:58;;;;;;;6.32;1.00;;;23.10;53.80;;;;;;6203363;23;20012;-78
2022/07/11 12:16:43;;;;;;;2.17;0.70;;;23.20;53.20;;;;;;6203255;23;20023;-78
2022/07/11 12:19:18;;;;;;;1.52;0.45;;;23.20;52.80;;;;;;6201307;23;20608;-79
2022/07/11 12:21:47;;;;;;;7.18;0.75;;;23.20;52.60;;;;;;6199852;23;20085;-79
2022/07/11 12:24:16;;;;;;;3.58;0.73;;;23.20;53.20;;;;;;6199545;23;20012;-78
2022/07/11 12:26:43;;;;;;;3.60;0.80;;;23.30;53.70;;;;;;6199157;23;20015;-79
2022/07/11 12:29:21;;;;;;;6.18;1.08;;;23.40;52.90;;;;;;6199362;23;20024;-78
2022/07/11 12:31:48;;;;;;;4.50;1.17;;;23.60;52.20;;;;;;6199792;23;20013;-79
2022/07/11 12:34:16;;;;;;;2.25;0.60;;;23.60;52.90;;;;;;6209623;23;20089;-77
2022/07/11 12:36:42;;;;;;;2.33;0.88;;;23.60;51.60;;;;;;6197053;23;20012;-77
2022/07/11 12:39:08;;;;;;;2.80;0.63;;;23.80;52.10;;;;;;6200196;23;20012;-77
2022/07/11 12:41:34;;;;;;;3.25;0.90;;;23.80;51.30;;;;;;6200681;23;20008;-77
2022/07/11 12:46:48;;;;;;;2.03;0.82;;;23.80;49.80;;;;;;6200885;23;20664;-77
2022/07/11 12:49:15;;;;;;;3.72;0.77;;;23.80;51.60;;;;;;6198503;23;20818;-77
2022/07/11 12:51:44;;;;;;;5.03;0.88;;;23.70;52.10;;;;;;6211207;23;20008;-77
2022/07/11 12:54:11;;;;;;;4.05;0.82;;;23.80;52.20;;;;;;6211593;23;20015;-77
2022/07/11 12:56:38;;;;;;;2.85;1.00;;;23.80;52.10;;;;;;6200090;23;20819;-77
2022/07/11 12:59:06;;;;;;;1.98;0.50;;;23.80;52.60;;;;;;6210652;23;20067;-77
2022/07/11 13:01:33;;;;;;;3.00;0.60;;;23.80;51.30;;;;;;6200038;23;21004;-77
2022/07/11 13:03:59;;;;;;;4.53;0.93;;;23.80;52.20;;;;;;6200933;23;20013;-77
2022/07/11 13:09:17;;;;;;;2.72;0.80;;;23.70;51.10;;;;;;6209429;23;20027;-76